Time;durP1;ratioP1;P1;durP2;ratioP2;P2;SDS_P1;SDS_P2;PMS_P1;PMS_P2;Temp;Humidity;BMP_temperature;BMP_pressure;BME280_temperature;BME280_humidity;BME280_pressure;Samples;Min_cycle;Max_cycle;Signal;HPM_P1;HPM_P2
2022/11/21 00:00:00;;;;;;;;;;;;;;;;;;5110415;28;20400;-66
2022/11/21 00:02:26;;;;;;;;;;;;;;;;;;5110685;28;19908;-66
2022/11/21 00:04:52;;;;;;;;;;;;;;;;;;5110219;28;19916;-66
2022/11/21 00:07:18;;;;;;;;;;;;;;;;;;5109331;28;19932;-66
2022/11/21 00:09:44;;;;;;;;;;;;;;;;;;5110536;28;19961;-66
2022/11/21 00:12:10;;;;;;;;;;;;;;;;;;5099181;28;20429;-66
2022/11/21 00:14:35;;;;;;;;;;;;;;;;;;5095570;28;20257;-66
2022/11/21 00:17:01;;;;;;;;;;;;;;;;;;5096834;28;19908;-66
2022/11/21 00:19:27;;;;;;;;;;;;;;;;;;5096357;28;19955;-66
2022/11/21 00:21:53;;;;;;;;;;;;;;;;;;5096900;28;19908;-66
2022/11/21 00:24:19;;;;;;;;;;;;;;;;;;5096706;28;19908;-66
2022/11/21 00:26:45;;;;;;;;;;;;;;;;;;5094975;28;19908;-66
2022/11/21 00:29:11;;;;;;;;;;;;;;;;;;5096632;28;19957;-67
2022/11/21 00:31:37;;;;;;;;;;;;;;;;;;5097140;28;19915;-66
2022/11/21 00:34:03;;;;;;;;;;;;;;;;;;5096103;28;20387;-66
2022/11/21 00:36:29;;;;;;;;;;;;;;;;;;5096483;28;20410;-66
2022/11/21 00:38:55;;;;;;;;;;;;;;;;;;5096255;28;19909;-66
2022/11/21 00:41:21;;;;;;;;;;;;;;;;;;5096334;28;19912;-66
2022/11/21 00:43:47;;;;;;;;;;;;;;;;;;5096323;28;19908;-66
2022/11/21 00:46:13;;;;;;;;;;;;;;;;;;5095899;28;19908;-66
2022/11/21 00:48:39;;;;;;;;;;;;;;;;;;5094972;28;19914;-65
2022/11/21 00:51:05;;;;;;;;;;;;;;;;;;5096141;28;19961;-65
2022/11/21 00:53:31;;;;;;;;;;;;;;;;;;5096146;28;20360;-66
2022/11/21 00:55:57;;;;;;;;;;;;;;;;;;5096115;28;20297;-66
2022/11/21 00:58:23;;;;;;;;;;;;;;;;;;5095987;28;19954;-65
2022/11/21 01:00:49;;;;;;;;;;;;;;;;;;5095381;28;19924;-66
2022/11/21 01:03:15;;;;;;;;;;;;;;;;;;5095939;28;19955;-66
2022/11/21 01:05:41;;;;;;;;;;;;;;;;;;5094572;28;19908;-65
2022/11/21 01:08:06;;;;;;;;;;;;;;;;;;5095471;28;19920;-65
2022/11/21 01:10:32;;;;;;;;;;;;;;;;;;5095832;28;19908;-66
2022/11/21 01:12:58;;;;;;;;;;;;;;;;;;5095813;28;19915;-65
2022/11/21 01:15:24;;;;;;;;;;;;;;;;;;5095564;28;19951;-65
2022/11/21 01:17:50;;;;;;;;;;;;;;;;;;5095652;28;20376;-65
2022/11/21 01:20:16;;;;;;;;;;;;;;;;;;5094247;28;20303;-66
2022/11/21 01:22:42;;;;;;;;;;;;;;;;;;5094167;28;19970;-66
2022/11/21 01:25:08;;;;;;;;;;;;;;;;;;5094218;28;19970;-65
2022/11/21 01:27:34;;;;;;;;;;;;;;;;;;5095482;28;20283;-66
2022/11/21 01:30:00;;;;;;;;;;;;;;;;;;5094933;28;19908;-66
2022/11/21 01:32:26;;;;;;;;;;;;;;;;;;5095310;28;19926;-66
2022/11/21 01:34:52;;;;;;;;;;;;;;;;;;5095291;28;19908;-66
2022/11/21 01:37:18;;;;;;;;;;;;;;;;;;5094867;28;19908;-66
2022/11/21 01:39:44;;;;;;;;;;;;;;;;;;5095236;28;19920;-65
2022/11/21 01:42:10;;;;;;;;;;;;;;;;;;5093446;28;19915;-65
2022/11/21 01:44:36;;;;;;;;;;;;;;;;;;5093835;28;19915;-65
2022/11/21 01:47:01;;;;;;;;;;;;;;;;;;5095414;28;19995;-65
2022/11/21 01:49:27;;;;;;;;;;;;;;;;;;5093337;28;19923;-65
2022/11/21 01:51:53;;;;;;;;;;;;;;;;;;5093752;28;19943;-65
2022/11/21 01:54:19;;;;;;;;;;;;;;;;;;5094857;28;19915;-66
2022/11/21 01:56:45;;;;;;;;;;;;;;;;;;5095471;28;19908;-65
2022/11/21 01:59:11;;;;;;;;;;;;;;;;;;5093375;28;19981;-65
2022/11/21 02:01:37;;;;;;;;;;;;;;;;;;5095174;28;19908;-66
2022/11/21 02:04:03;;;;;;;;;;;;;;;;;;5093116;28;20383;-66
2022/11/21 02:06:29;;;;;;;;;;;;;;;;;;5094671;28;19987;-66
2022/11/21 02:08:55;;;;;;;;;;;;;;;;;;5094659;28;19958;-66
2022/11/21 02:11:21;;;;;;;;;;;;;;;;;;5094509;28;20384;-66
2022/11/21 02:13:47;;;;;;;;;;;;;;;;;;5094588;28;20363;-66
2022/11/21 02:16:13;;;;;;;;;;;;;;;;;;5094578;28;20330;-66
2022/11/21 02:18:39;;;;;;;;;;;;;;;;;;5092841;28;19908;-66
2022/11/21 02:21:05;;;;;;;;;;;;;;;;;;5094786;28;19923;-66
2022/11/21 02:23:31;;;;;;;;;;;;;;;;;;5094517;28;19947;-66
2022/11/21 02:25:57;;;;;;;;;;;;;;;;;;5094112;28;19919;-66
2022/11/21 02:28:23;;;;;;;;;;;;;;;;;;5094402;28;19908;-66
2022/11/21 02:30:49;;;;;;;;;;;;;;;;;;5094363;28;19908;-66
2022/11/21 02:33:15;;;;;;;;;;;;;;;;;;5093864;28;19915;-66
2022/11/21 02:35:41;;;;;;;;;;;;;;;;;;5094045;28;19915;-66
2022/11/21 02:38:07;;;;;;;;;;;;;;;;;;5094263;28;19912;-66
2022/11/21 02:40:32;;;;;;;;;;;;;;;;;;5093727;28;19916;-66
2022/11/21 02:42:58;;;;;;;;;;;;;;;;;;5094149;28;19953;-66
2022/11/21 02:45:24;;;;;;;;;;;;;;;;;;5093732;28;19912;-66
2022/11/21 02:47:50;;;;;;;;;;;;;;;;;;5094102;28;20318;-66
2022/11/21 02:50:16;;;;;;;;;;;;;;;;;;5094077;28;19913;-66
2022/11/21 02:52:42;;;;;;;;;;;;;;;;;;5093627;28;20287;-66
2022/11/21 02:55:10;;;;;;;;;;;;;;;;;;5094030;28;19915;-66
2022/11/21 02:57:36;;;;;;;;;;;;;;;;;;5094111;28;20331;-66
2022/11/21 03:00:02;;;;;;;;;;;;;;;;;;5093695;28;19927;-66
2022/11/21 03:02:28;;;;;;;;;;;;;;;;;;5094017;28;19994;-66
2022/11/21 03:04:54;;;;;;;;;;;;;;;;;;5093975;28;20426;-66
2022/11/21 03:07:20;;;;;;;;;;;;;;;;;;5093962;28;20276;-66
2022/11/21 03:09:46;;;;;;;;;;;;;;;;;;5092658;28;19908;-67
2022/11/21 03:12:12;;;;;;;;;;;;;;;;;;5093840;28;19962;-66
2022/11/21 03:14:37;;;;;;;;;;;;;;;;;;5092295;28;20019;-66
2022/11/21 03:17:03;;;;;;;;;;;;;;;;;;5094412;28;19958;-66
2022/11/21 03:19:29;;;;;;;;;;;;;;;;;;5093756;28;20372;-66
2022/11/21 03:21:55;;;;;;;;;;;;;;;;;;5093550;28;20288;-66
2022/11/21 03:24:21;;;;;;;;;;;;;;;;;;5093779;28;19958;-66
2022/11/21 03:26:47;;;;;;;;;;;;;;;;;;5094017;28;19915;-68
2022/11/21 03:29:13;;;;;;;;;;;;;;;;;;5092133;28;19909;-66
2022/11/21 03:31:39;;;;;;;;;;;;;;;;;;5093669;28;19908;-66
2022/11/21 03:34:05;;;;;;;;;;;;;;;;;;5093778;28;19908;-66
2022/11/21 03:36:31;;;;;;;;;;;;;;;;;;5093328;28;19931;-66
2022/11/21 03:38:57;;;;;;;;;;;;;;;;;;5093523;28;19908;-66
2022/11/21 03:41:29;;;;;;;;;;;;;;;;;;5093641;28;19989;-66
2022/11/21 03:43:55;;;;;;;;;;;;;;;;;;5093205;28;19991;-66
2022/11/21 03:46:21;;;;;;;;;;;;;;;;;;5094596;28;19944;-66
2022/11/21 03:48:47;;;;;;;;;;;;;;;;;;5097054;28;19908;-66
2022/11/21 03:51:13;;;;;;;;;;;;;;;;;;5096179;28;19950;-66
2022/11/21 03:53:39;;;;;;;;;;;;;;;;;;5097472;28;20383;-66
2022/11/21 03:56:05;;;;;;;;;;;;;;;;;;5096883;28;20368;-67
2022/11/21 03:58:31;;;;;;;;;;;;;;;;;;5097284;28;19909;-66
2022/11/21 04:00:57;;;;;;;;;;;;;;;;;;5096984;28;19954;-66
2022/11/21 04:03:23;;;;;;;;;;;;;;;;;;5095440;28;19908;-66
2022/11/21 04:05:48;;;;;;;;;;;;;;;;;;5097141;28;19912;-66
2022/11/21 04:08:14;;;;;;;;;;;;;;;;;;5095793;28;19915;-66
2022/11/21 04:11:48;;;;;;;;;;;;;;;;;;5091166;28;19917;-66
2022/11/21 04:14:14;;;;;;;;;;;;;;;;;;5091477;28;19919;-66
2022/11/21 04:16:40;;;;;;;;;;;;;;;;;;5091400;28;19909;-66
2022/11/21 04:19:06;;;;;;;;;;;;;;;;;;5090950;28;20003;-66
2022/11/21 04:21:32;;;;;;;;;;;;;;;;;;5091291;28;20360;-65
2022/11/21 04:23:58;;;;;;;;;;;;;;;;;;5090825;28;19912;-65
2022/11/21 04:26:24;;;;;;;;;;;;;;;;;;5091204;28;19909;-66
2022/11/21 04:28:50;;;;;;;;;;;;;;;;;;5091121;28;19908;-66
2022/11/21 04:31:16;;;;;;;;;;;;;;;;;;5090682;28;19916;-66
2022/11/21 04:33:42;;;;;;;;;;;;;;;;;;5091155;28;19978;-66
2022/11/21 04:36:08;;;;;;;;;;;;;;;;;;5091004;28;19916;-66
2022/11/21 04:38:34;;;;;;;;;;;;;;;;;;5089319;28;19908;-66
2022/11/21 04:41:00;;;;;;;;;;;;;;;;;;5090957;28;20284;-66
2022/11/21 04:43:26;;;;;;;;;;;;;;;;;;5090928;28;19953;-65
2022/11/21 04:45:52;;;;;;;;;;;;;;;;;;5090557;28;19909;-66
2022/11/21 04:48:18;;;;;;;;;;;;;;;;;;5090934;28;19912;-66
2022/11/21 04:50:44;;;;;;;;;;;;;;;;;;5090652;28;19916;-66
2022/11/21 04:53:10;;;;;;;;;;;;;;;;;;5090332;28;20293;-66
2022/11/21 04:55:36;;;;;;;;;;;;;;;;;;5091197;28;19966;-65
2022/11/21 04:58:02;;;;;;;;;;;;;;;;;;5089305;28;19954;-65
2022/11/21 05:00:27;;;;;;;;;;;;;;;;;;5090185;28;19978;-66
2022/11/21 05:02:53;;;;;;;;;;;;;;;;;;5090745;28;19908;-65
2022/11/21 05:05:19;;;;;;;;;;;;;;;;;;5090498;28;19915;-66
2022/11/21 05:07:45;;;;;;;;;;;;;;;;;;5089955;28;19908;-65
2022/11/21 05:10:11;;;;;;;;;;;;;;;;;;5097369;28;19920;-66
2022/11/21 05:15:22;;;;;;;;;;;;;;;;;;5110225;28;19930;-66
2022/11/21 05:17:48;;;;;;;;;;;;;;;;;;5110455;28;19912;-66
2022/11/21 05:20:14;;;;;;;;;;;;;;;;;;5110127;28;20364;-66
2022/11/21 05:22:40;;;;;;;;;;;;;;;;;;5099463;28;19976;-66
2022/11/21 05:25:06;;;;;;;;;;;;;;;;;;5078602;28;19908;-66
2022/11/21 05:27:32;;;;;;;;;;;;;;;;;;5096414;28;19915;-67
2022/11/21 05:29:58;;;;;;;;;;;;;;;;;;5096623;28;20016;-66
2022/11/21 05:32:24;;;;;;;;;;;;;;;;;;5096626;28;19909;-66
2022/11/21 05:34:50;;;;;;;;;;;;;;;;;;5078048;28;19936;-66
2022/11/21 05:37:16;;;;;;;;;;;;;;;;;;5096803;28;20407;-66
2022/11/21 05:39:42;;;;;;;;;;;;;;;;;;5096716;28;19912;-66
2022/11/21 05:42:08;;;;;;;;;;;;;;;;;;5096211;28;20007;-66
2022/11/21 05:44:33;;;;;;;;;;;;;;;;;;5096483;28;20430;-66
2022/11/21 05:46:59;;;;;;;;;;;;;;;;;;5096404;28;19994;-67
2022/11/21 05:49:25;;;;;;;;;;;;;;;;;;5077847;28;19909;-67
2022/11/21 05:51:51;;;;;;;;;;;;;;;;;;5096291;28;19930;-67
2022/11/21 05:54:17;;;;;;;;;;;;;;;;;;5096466;28;19947;-67
2022/11/21 05:56:43;;;;;;;;;;;;;;;;;;5096089;28;19915;-67
2022/11/21 05:59:09;;;;;;;;;;;;;;;;;;5096251;28;20286;-67
2022/11/21 06:04:19;;;;;;;;;;;;;;;;;;5095190;28;20389;-67
2022/11/21 06:06:45;;;;;;;;;;;;;;;;;;5095953;28;19908;-67
2022/11/21 06:09:11;;;;;;;;;;;;;;;;;;5077859;28;19915;-68
2022/11/21 06:11:37;;;;;;;;;;;;;;;;;;5094912;28;20006;-67
2022/11/21 06:14:03;;;;;;;;;;;;;;;;;;5089852;28;19931;-68
2022/11/21 06:16:29;;;;;;;;;;;;;;;;;;5094543;28;19908;-67
2022/11/21 06:18:55;;;;;;;;;;;;;;;;;;5074690;28;19912;-67
2022/11/21 06:21:21;;;;;;;;;;;;;;;;;;5092326;28;19987;-67
2022/11/21 06:23:47;;;;;;;;;;;;;;;;;;5067399;28;20007;-67
2022/11/21 06:26:13;;;;;;;;;;;;;;;;;;5065813;28;19920;-67
2022/11/21 06:28:39;;;;;;;;;;;;;;;;;;5091290;28;19944;-68
2022/11/21 06:31:05;;;;;;;;;;;;;;;;;;5081398;28;20377;-68
2022/11/21 06:33:31;;;;;;;;;;;;;;;;;;5083377;28;19919;-67
2022/11/21 06:35:57;;;;;;;;;;;;;;;;;;5085323;28;19912;-67
2022/11/21 06:38:23;;;;;;;;;;;;;;;;;;5090576;28;20002;-66
2022/11/21 06:40:49;;;;;;;;;;;;;;;;;;5093291;28;20375;-65
2022/11/21 06:43:15;;;;;;;;;;;;;;;;;;5093375;28;20279;-66
2022/11/21 06:45:41;;;;;;;;;;;;;;;;;;5091658;28;19940;-66
2022/11/21 06:48:07;;;;;;;;;;;;;;;;;;5075497;28;20342;-67
2022/11/21 06:50:33;;;;;;;;;;;;;;;;;;5090778;28;19923;-67
2022/11/21 06:52:59;;;;;;;;;;;;;;;;;;5089293;28;20003;-68
2022/11/21 06:55:26;;;;;;;;;;;;;;;;;;5092838;28;20044;-68
2022/11/21 06:57:52;;;;;;;;;;;;;;;;;;5093303;28;20002;-68
2022/11/21 07:00:23;;;;;;;;;;;;;;;;;;5093001;28;20007;-67
2022/11/21 07:02:49;;;;;;;;;;;;;;;;;;5084985;28;19908;-68
2022/11/21 07:05:15;;;;;;;;;;;;;;;;;;5094084;28;20333;-68
2022/11/21 07:07:41;;;;;;;;;;;;;;;;;;5085890;28;19915;-67
2022/11/21 07:10:07;;;;;;;;;;;;;;;;;;5080882;28;20381;-67
2022/11/21 07:15:18;;;;;;;;;;;;;;;;;;5080940;28;19929;-69
2022/11/21 07:17:44;;;;;;;;;;;;;;;;;;5065993;28;19920;-67
2022/11/21 07:20:10;;;;;;;;;;;;;;;;;;5068250;28;19955;-67
2022/11/21 07:22:36;;;;;;;;;;;;;;;;;;5087586;28;20450;-67
2022/11/21 07:25:01;;;;;;;;;;;;;;;;;;5089747;28;20345;-67
2022/11/21 07:27:27;;;;;;;;;;;;;;;;;;5086943;28;20618;-67
2022/11/21 07:29:56;;;;;;;;;;;;;;;;;;5089371;28;19939;-68
2022/11/21 07:32:22;;;;;;;;;;;;;;;;;;5090835;28;19908;-69
2022/11/21 07:34:48;;;;;;;;;;;;;;;;;;5092431;28;19916;-67
2022/11/21 07:37:14;;;;;;;;;;;;;;;;;;5078397;28;19923;-66
2022/11/21 07:39:40;;;;;;;;;;;;;;;;;;5086832;28;19913;-66
2022/11/21 07:42:06;;;;;;;;;;;;;;;;;;5058156;28;20311;-68
2022/11/21 07:44:31;;;;;;;;;;;;;;;;;;5089197;28;19912;-68
2022/11/21 07:46:57;;;;;;;;;;;;;;;;;;5091331;28;20009;-68
2022/11/21 07:49:23;;;;;;;;;;;;;;;;;;5086966;28;19912;-67
2022/11/21 07:51:49;;;;;;;;;;;;;;;;;;5067179;28;19920;-68
2022/11/21 07:54:15;;;;;;;;;;;;;;;;;;5091056;28;20220;-68
2022/11/21 07:56:41;;;;;;;;;;;;;;;;;;5072320;28;19912;-68
2022/11/21 07:59:07;;;;;;;;;;;;;;;;;;5067430;28;19977;-67
2022/11/21 08:01:33;;;;;;;;;;;;;;;;;;5075784;28;19912;-69
2022/11/21 08:03:59;;;;;;;;;;;;;;;;;;5069219;28;20821;-67
2022/11/21 08:06:25;;;;;;;;;;;;;;;;;;5078552;28;20538;-68
2022/11/21 08:08:51;;;;;;;;;;;;;;;;;;5084473;28;19953;-68
2022/11/21 08:11:17;;;;;;;;;;;;;;;;;;5085854;28;19930;-68
2022/11/21 08:13:43;;;;;;;;;;;;;;;;;;5064672;28;19908;-68
2022/11/21 08:16:09;;;;;;;;;;;;;;;;;;5086657;28;19908;-68
2022/11/21 08:18:35;;;;;;;;;;;;;;;;;;5087180;28;19952;-67
2022/11/21 08:21:01;;;;;;;;;;;;;;;;;;5062331;28;20334;-66
2022/11/21 08:23:28;;;;;;;;;;;;;;;;;;5074859;28;19912;-68
2022/11/21 08:25:54;;;;;;;;;;;;;;;;;;5089231;28;19971;-66
2022/11/21 08:28:20;;;;;;;;;;;;;;;;;;5088151;28;20391;-67
2022/11/21 08:30:46;;;;;;;;;;;;;;;;;;5088876;28;19985;-66
2022/11/21 08:33:12;;;;;;;;;;;;;;;;;;5070477;28;19912;-68
2022/11/21 08:35:38;;;;;;;;;;;;;;;;;;5085721;28;19919;-68
2022/11/21 08:38:04;;;;;;;;;;;;;;;;;;5090353;28;19912;-67
2022/11/21 08:40:30;;;;;;;;;;;;;;;;;;5090301;28;19914;-68
2022/11/21 08:42:56;;;;;;;;;;;;;;;;;;5091497;28;19961;-69
2022/11/21 08:45:22;;;;;;;;;;;;;;;;;;5073083;28;20468;-67
2022/11/21 08:47:48;;;;;;;;;;;;;;;;;;5092084;28;19912;-66
2022/11/21 08:50:14;;;;;;;;;;;;;;;;;;5092051;28;20372;-67
2022/11/21 08:52:40;;;;;;;;;;;;;;;;;;5086376;28;19999;-65
2022/11/21 08:55:06;;;;;;;;;;;;;;;;;;5090357;28;19908;-66
2022/11/21 08:57:32;;;;;;;;;;;;;;;;;;5056511;28;20012;-67
2022/11/21 08:59:58;;;;;;;;;;;;;;;;;;5074919;28;19973;-66
2022/11/21 09:02:24;;;;;;;;;;;;;;;;;;5095581;28;19942;-66
2022/11/21 09:04:50;;;;;;;;;;;;;;;;;;5086554;28;19973;-66
2022/11/21 09:07:16;;;;;;;;;;;;;;;;;;5075550;28;19908;-68
2022/11/21 09:09:42;;;;;;;;;;;;;;;;;;5089357;28;19912;-66
2022/11/21 09:12:08;;;;;;;;;;;;;;;;;;5083309;28;20635;-65
2022/11/21 09:20:03;;;;;;;;;;;;;;;;;;5073419;28;19915;-65
2022/11/21 09:22:28;;;;;;;;;;;;;;;;;;5076197;28;20014;-67
2022/11/21 09:24:54;;;;;;;;;;;;;;;;;;5086996;28;19916;-67
2022/11/21 09:27:20;;;;;;;;;;;;;;;;;;5078300;28;20055;-68
2022/11/21 09:29:46;;;;;;;;;;;;;;;;;;5086129;28;20359;-68
2022/11/21 09:32:12;;;;;;;;;;;;;;;;;;5085634;28;20015;-67
2022/11/21 09:34:38;;;;;;;;;;;;;;;;;;5088890;28;20359;-67
2022/11/21 09:37:04;;;;;;;;;;;;;;;;;;5058788;28;19992;-68
2022/11/21 09:39:30;;;;;;;;;;;;;;;;;;5078744;28;19916;-67
2022/11/21 09:41:56;;;;;;;;;;;;;;;;;;5073190;28;19909;-67
2022/11/21 09:45:42;;;;;;;;;;;;;;;;;;5081106;28;19928;-65
2022/11/21 09:48:08;;;;;;;;;;;;;;;;;;5067356;28;19916;-67
2022/11/21 09:50:34;;;;;;;;;;;;;;;;;;5067229;28;19916;-67
2022/11/21 09:53:00;;;;;;;;;;;;;;;;;;5072297;28;20115;-66
2022/11/21 09:55:26;;;;;;;;;;;;;;;;;;5072740;28;19986;-67
2022/11/21 09:57:52;;;;;;;;;;;;;;;;;;5085511;28;19918;-66
2022/11/21 10:00:18;;;;;;;;;;;;;;;;;;5084106;28;19919;-67
2022/11/21 10:02:44;;;;;;;;;;;;;;;;;;5083559;28;20425;-68
2022/11/21 10:05:10;;;;;;;;;;;;;;;;;;5064349;28;20008;-68
2022/11/21 10:07:36;;;;;;;;;;;;;;;;;;5063743;28;20007;-68
2022/11/21 10:10:02;;;;;;;;;;;;;;;;;;5068895;28;19924;-67
2022/11/21 10:12:37;;;;;;;;;;;;;;;;;;5079614;28;20015;-68
2022/11/21 10:15:04;;;;;;;;;;;;;;;;;;5087112;28;19909;-68
2022/11/21 10:17:30;;;;;;;;;;;;;;;;;;5081447;28;20509;-67
2022/11/21 10:19:56;;;;;;;;;;;;;;;;;;5069609;28;19996;-67
2022/11/21 10:22:21;;;;;;;;;;;;;;;;;;5075924;28;19912;-67
2022/11/21 10:24:47;;;;;;;;;;;;;;;;;;5089212;28;20693;-67
2022/11/21 10:27:14;;;;;;;;;;;;;;;;;;5080942;28;19912;-68
2022/11/21 10:29:39;;;;;;;;;;;;;;;;;;5067661;28;19959;-68
2022/11/21 10:32:05;;;;;;;;;;;;;;;;;;5073449;28;20009;-68
2022/11/21 10:34:31;;;;;;;;;;;;;;;;;;5085539;28;19913;-68
2022/11/21 10:36:57;;;;;;;;;;;;;;;;;;5069546;28;19913;-68
2022/11/21 10:39:24;;;;;;;;;;;;;;;;;;5067441;28;19913;-67
2022/11/21 10:41:50;;;;;;;;;;;;;;;;;;5067600;28;19909;-67
2022/11/21 10:47:01;;;;;;;;;;;;;;;;;;5064903;28;19998;-67
2022/11/21 10:49:27;;;;;;;;;;;;;;;;;;5065283;28;20440;-68
2022/11/21 10:51:53;;;;;;;;;;;;;;;;;;5066685;28;19912;-68
2022/11/21 10:54:31;;;;;;;;;;;;;;;;;;5072523;28;20007;-68
2022/11/21 10:56:57;;;;;;;;;;;;;;;;;;5063727;28;19993;-69
2022/11/21 10:59:23;;;;;;;;;;;;;;;;;;5075150;28;19908;-68
2022/11/21 11:01:49;;;;;;;;;;;;;;;;;;5073744;28;19909;-69
2022/11/21 11:04:15;;;;;;;;;;;;;;;;;;5073618;28;19923;-69
2022/11/21 11:06:41;;;;;;;;;;;;;;;;;;5073274;28;19999;-68
2022/11/21 11:09:07;;;;;;;;;;;;;;;;;;5074920;28;20336;-69
2022/11/21 11:11:33;;;;;;;;;;;;;;;;;;5074238;28;19913;-69
2022/11/21 11:13:59;;;;;;;;;;;;;;;;;;5065848;28;19912;-67
2022/11/21 11:16:25;;;;;;;;;;;;;;;;;;5056464;28;19912;-67
2022/11/21 11:20:06;;;;;;;;;;;;;;;;;;5096531;27;20239;-66
2022/11/21 11:22:32;;;;;;;;;;;;;;;;;;5102505;28;20283;-66
2022/11/21 11:24:58;;;;;;;;;;;;;;;;;;5105866;28;19933;-67
2022/11/21 11:30:44;;;;;;;;;;;;;;;;;;5108101;27;19916;-65
2022/11/21 11:33:10;;;;;;;;;;;;;;;;;;5108984;28;20378;-67
2022/11/21 11:35:36;;;;;;;;;;;;;;;;;;5107897;28;19915;-66
2022/11/21 11:38:02;;;;;;;;;;;;;;;;;;5088008;28;19954;-65
2022/11/21 11:41:14;;;;;;;;;;;;;;;;;;5079369;27;19923;-66
2022/11/21 11:47:31;;;;;;;;;;;;;;;;;;5097674;28;19919;-66
2022/11/21 11:50:12;;;;;;;;;;;;;;;;;;5108496;28;20354;-67
2022/11/21 11:52:38;;;;;;;;;;;;;;;;;;5107088;28;20386;-66
2022/11/21 11:55:04;;;;;;;;;;;;;;;;;;5102147;28;19908;-66
2022/11/21 11:57:30;;;;;;;;;;;;;;;;;;5089303;28;19920;-66
2022/11/21 11:59:56;;;;;;;;;;;;;;;;;;5089298;28;20275;-66
2022/11/21 12:02:22;;;;;;;;;;;;;;;;;;5090953;28;20006;-66
2022/11/21 12:07:35;;;;;;;;;;;;;;;;;;5087397;27;19918;-65
2022/11/21 12:14:03;;;;;;;;;;;;;;;;;;5108011;27;19916;-65
2022/11/21 12:16:29;;;;;;;;;;;;;;;;;;5109164;28;19919;-65
2022/11/21 12:18:55;;;;;;;;;;;;;;;;;;5109911;28;19909;-64
2022/11/21 12:23:06;;;;;;;;;;;;;;;;;;5085636;27;19921;-65
2022/11/21 12:25:32;;;;;;;;;;;;;;;;;;5065005;28;19920;-66
2022/11/21 12:27:58;;;;;;;;;;;;;;;;;;5068266;28;19909;-65
2022/11/21 12:34:13;;;;;;;;;;;;;;;;;;5145697;27;19916;-65
2022/11/21 12:36:38;;;;;;;;;;;;;;;;;;5117849;28;20019;-65
2022/11/21 12:39:04;;;;;;;;;;;;;;;;;;5094272;28;20368;-65
2022/11/21 12:44:16;;;;;;;;;;;;;;;;;;5112322;28;19915;-66
2022/11/21 12:58:51;;;;;;;;;;;;;;;;;;5086643;27;19927;-66
2022/11/21 13:01:17;;;;;;;;;;;;;;;;;;5083945;28;19913;-68
2022/11/21 13:03:42;;;;;;;;;;;;;;;;;;5068105;28;19927;-67
2022/11/21 13:06:08;;;;;;;;;;;;;;;;;;5069649;28;20383;-67
2022/11/21 13:08:35;;;;;;;;;;;;;;;;;;5067363;28;19908;-66
2022/11/21 13:14:48;;;;;;;;;;;;;;;;;;5110230;27;19916;-66
2022/11/21 13:17:14;;;;;;;;;;;;;;;;;;5102440;28;19919;-66
2022/11/21 13:19:40;;;;;;;;;;;;;;;;;;5101025;28;19912;-66
2022/11/21 13:22:06;;;;;;;;;;;;;;;;;;5092249;28;19913;-67
2022/11/21 13:26:42;;;;;;;;;;;;;;;;;;5065756;28;19916;-66
2022/11/21 13:29:08;;;;;;;;;;;;;;;;;;5049696;28;19959;-66
2022/11/21 13:33:48;;;;;;;;;;;;;;;;;;5078459;27;19917;-68
2022/11/21 13:36:14;;;;;;;;;;;;;;;;;;5079339;28;20010;-67
2022/11/21 13:40:34;;;;;;;;;;;;;;;;;;5097207;28;19923;-68
2022/11/21 13:43:01;;;;;;;;;;;;;;;;;;5100031;28;19962;-67
2022/11/21 13:45:26;;;;;;;;;;;;;;;;;;5098969;28;19912;-68
2022/11/21 13:49:17;;;;;;;;;;;;;;;;;;5111039;27;19916;-66
2022/11/21 13:52:43;;;;;;;;;;;;;;;;;;5107962;27;20287;-67
2022/11/21 13:55:09;;;;;;;;;;;;;;;;;;5107170;28;19912;-67
2022/11/21 13:57:35;;;;;;;;;;;;;;;;;;5119072;28;19908;-66
2022/11/21 14:00:00;;;;;;;;;;;;;;;;;;5126858;28;20010;-67
2022/11/21 14:02:50;;;;;;;;;;;;;;;;;;5087493;27;20292;-69
2022/11/21 14:05:16;;;;;;;;;;;;;;;;;;5087018;28;19912;-69
2022/11/21 14:09:58;;;;;;;;;;;;;;;;;;5132077;27;19912;-67
2022/11/21 14:12:24;;;;;;;;;;;;;;;;;;5131019;28;20010;-68
2022/11/21 14:14:50;;;;;;;;;;;;;;;;;;5130459;28;19915;-67
2022/11/21 14:18:22;;;;;;;;;;;;;;;;;;5094852;27;2206681;-67
2022/11/21 14:20:48;;;;;;;;;;;;;;;;;;5173751;27;19918;-67
2022/11/21 14:23:14;;;;;;;;;;;;;;;;;;5173223;27;19925;-66
2022/11/21 14:25:40;;;;;;;;;;;;;;;;;;5173728;27;20363;-68
2022/11/21 14:28:06;;;;;;;;;;;;;;;;;;5173605;27;20275;-67
2022/11/21 14:32:07;;;;;;;;;;;;;;;;;;5091473;28;20291;-69
2022/11/21 14:34:33;;;;;;;;;;;;;;;;;;5091884;28;19913;-67
2022/11/21 14:36:59;;;;;;;;;;;;;;;;;;5090954;28;19970;-69
2022/11/21 14:39:25;;;;;;;;;;;;;;;;;;5091285;28;19909;-69
2022/11/21 14:41:51;;;;;;;;;;;;;;;;;;5091495;28;20336;-68
2022/11/21 14:44:17;;;;;;;;;;;;;;;;;;5090796;28;20280;-67
2022/11/21 14:46:43;;;;;;;;;;;;;;;;;;5091097;28;20270;-67
2022/11/21 14:49:09;;;;;;;;;;;;;;;;;;5091281;28;19954;-67
2022/11/21 14:51:35;;;;;;;;;;;;;;;;;;5090526;28;19940;-67
2022/11/21 14:54:01;;;;;;;;;;;;;;;;;;5089729;28;19915;-67
2022/11/21 14:56:27;;;;;;;;;;;;;;;;;;5091203;28;20353;-67
2022/11/21 14:58:53;;;;;;;;;;;;;;;;;;5090425;28;20325;-67
2022/11/21 15:01:19;;;;;;;;;;;;;;;;;;5090765;28;19909;-67
2022/11/21 15:03:45;;;;;;;;;;;;;;;;;;5090691;28;20352;-67
2022/11/21 15:06:11;;;;;;;;;;;;;;;;;;5089044;28;19914;-67
2022/11/21 15:08:37;;;;;;;;;;;;;;;;;;5090643;28;19958;-67
2022/11/21 15:11:03;;;;;;;;;;;;;;;;;;5090259;28;19923;-67
2022/11/21 15:13:31;;;;;;;;;;;;;;;;;;5090469;28;19908;-68
2022/11/21 15:15:59;;;;;;;;;;;;;;;;;;5090568;28;19915;-67
2022/11/21 15:18:25;;;;;;;;;;;;;;;;;;5090142;28;19908;-67
2022/11/21 15:20:51;;;;;;;;;;;;;;;;;;5090354;28;19908;-67
2022/11/21 15:23:17;;;;;;;;;;;;;;;;;;5090459;28;19989;-67
2022/11/21 15:25:43;;;;;;;;;;;;;;;;;;5090412;28;20356;-68
2022/11/21 15:28:10;;;;;;;;;;;;;;;;;;5091247;28;20396;-68
2022/11/21 15:30:38;;;;;;;;;;;;;;;;;;5098075;28;20003;-67
2022/11/21 15:33:04;;;;;;;;;;;;;;;;;;5091904;28;19908;-67
2022/11/21 15:35:30;;;;;;;;;;;;;;;;;;5110532;28;19930;-68
2022/11/21 15:37:56;;;;;;;;;;;;;;;;;;5110692;28;19908;-67
2022/11/21 15:40:22;;;;;;;;;;;;;;;;;;5110192;28;19915;-67
2022/11/21 15:42:48;;;;;;;;;;;;;;;;;;5100600;28;19908;-67
2022/11/21 15:45:14;;;;;;;;;;;;;;;;;;5078635;28;19912;-67
2022/11/21 15:47:40;;;;;;;;;;;;;;;;;;5096520;28;20291;-67
2022/11/21 15:50:06;;;;;;;;;;;;;;;;;;5078531;28;19981;-68
2022/11/21 15:52:32;;;;;;;;;;;;;;;;;;5096649;28;19990;-68
2022/11/21 15:54:57;;;;;;;;;;;;;;;;;;5096201;28;19915;-68
2022/11/21 15:57:23;;;;;;;;;;;;;;;;;;5096565;28;19908;-68
2022/11/21 15:59:49;;;;;;;;;;;;;;;;;;5096498;28;19954;-68
2022/11/21 16:02:15;;;;;;;;;;;;;;;;;;5096083;28;19908;-68
2022/11/21 16:04:41;;;;;;;;;;;;;;;;;;5078323;28;19908;-68
2022/11/21 16:07:07;;;;;;;;;;;;;;;;;;5096470;28;19912;-68
2022/11/21 16:09:34;;;;;;;;;;;;;;;;;;5095960;28;20011;-68
2022/11/21 16:12:00;;;;;;;;;;;;;;;;;;5078051;28;19920;-68
2022/11/21 16:14:26;;;;;;;;;;;;;;;;;;5095838;28;20309;-68
2022/11/21 16:16:52;;;;;;;;;;;;;;;;;;5078013;28;19943;-68
2022/11/21 16:19:18;;;;;;;;;;;;;;;;;;5078018;28;19916;-68
2022/11/21 16:21:44;;;;;;;;;;;;;;;;;;5077429;28;19908;-68
2022/11/21 16:24:10;;;;;;;;;;;;;;;;;;5096000;28;20293;-68
2022/11/21 16:26:36;;;;;;;;;;;;;;;;;;5095782;28;19908;-69
2022/11/21 16:29:04;;;;;;;;;;;;;;;;;;5077377;28;20003;-68
2022/11/21 16:31:30;;;;;;;;;;;;;;;;;;5095692;28;20000;-68
2022/11/21 16:33:57;;;;;;;;;;;;;;;;;;5096203;28;20007;-68
2022/11/21 16:36:23;;;;;;;;;;;;;;;;;;5095349;28;20335;-68
2022/11/21 16:38:49;;;;;;;;;;;;;;;;;;5095786;28;19947;-68
2022/11/21 16:41:15;;;;;;;;;;;;;;;;;;5096157;28;20352;-68
2022/11/21 16:43:41;;;;;;;;;;;;;;;;;;5095292;28;19909;-68
2022/11/21 16:46:07;;;;;;;;;;;;;;;;;;5095760;28;19912;-67
2022/11/21 16:48:33;;;;;;;;;;;;;;;;;;5095525;28;19915;-68
2022/11/21 16:50:59;;;;;;;;;;;;;;;;;;5095070;28;19974;-68
2022/11/21 16:53:24;;;;;;;;;;;;;;;;;;5094645;28;19915;-68
2022/11/21 16:55:50;;;;;;;;;;;;;;;;;;5095452;28;19908;-68
2022/11/21 16:58:16;;;;;;;;;;;;;;;;;;5076777;28;19912;-68
2022/11/21 17:00:42;;;;;;;;;;;;;;;;;;5095419;28;19927;-68
2022/11/21 17:03:08;;;;;;;;;;;;;;;;;;5095307;28;20353;-68
2022/11/21 17:05:34;;;;;;;;;;;;;;;;;;5094792;28;19912;-68
2022/11/21 17:08:00;;;;;;;;;;;;;;;;;;5077018;28;20406;-68
2022/11/21 17:10:26;;;;;;;;;;;;;;;;;;5076852;28;20395;-68
2022/11/21 17:12:52;;;;;;;;;;;;;;;;;;5094858;28;20481;-68
2022/11/21 17:15:18;;;;;;;;;;;;;;;;;;5094989;28;19908;-68
2022/11/21 17:17:44;;;;;;;;;;;;;;;;;;5094643;28;19915;-68
2022/11/21 17:20:10;;;;;;;;;;;;;;;;;;5095406;28;20311;-68
2022/11/21 17:22:36;;;;;;;;;;;;;;;;;;5095234;28;19916;-68
2022/11/21 17:25:02;;;;;;;;;;;;;;;;;;5076274;28;19912;-68
2022/11/21 17:27:28;;;;;;;;;;;;;;;;;;5076643;28;19914;-68
2022/11/21 17:29:54;;;;;;;;;;;;;;;;;;5094405;28;20260;-67
2022/11/21 17:32:20;;;;;;;;;;;;;;;;;;5094554;28;19908;-68
2022/11/21 17:34:46;;;;;;;;;;;;;;;;;;5076605;28;19908;-68
2022/11/21 17:37:12;;;;;;;;;;;;;;;;;;5094741;28;20280;-67
2022/11/21 17:39:38;;;;;;;;;;;;;;;;;;5094168;28;20332;-68
2022/11/21 17:42:04;;;;;;;;;;;;;;;;;;5076264;28;19908;-68
2022/11/21 17:44:30;;;;;;;;;;;;;;;;;;5076342;28;19931;-67
2022/11/21 17:46:58;;;;;;;;;;;;;;;;;;5094196;28;19908;-67
2022/11/21 17:49:25;;;;;;;;;;;;;;;;;;5094688;28;19908;-67